Nearby METAR Reports

 

EIDW - Dublin Airport, Ireland
Distance from station: ENE 79km
Updated: 18/02/2020 21:00
Partly cloudy
Partly cloudy
 Wind from WSW
Wind: WSW 22 km/h
Temperature: 3°C
Wind Chill: -2°C
Dew Point: 0°C
Humidity: 81%
Barometer: 1015 hPa
Clouds: Partly cloudy
Visibility: 10 km
Cloud details: Few Clouds 488 m
Partly cloudy 1372 m
2020/02/18 21:00 EIDW 182100Z 25012KT 230V290 9999 FEW016 SCT045 03/00 Q1015 NOSIG
EIME - Casement (mil), Ireland
Distance from station: ENE 62km
Updated: 18/02/2020 21:00
Few Clouds
Few Clouds
 Wind from SW
Wind: SW 24 km/h
Temperature: 2°C
Wind Chill: -3°C
Dew Point: 0°C
Humidity: 87%
Barometer: 1015 hPa
Clouds: Few Clouds
Visibility: 10 km
Cloud details: Few Clouds 549 m
2020/02/18 21:00 EIME 182100Z 23013KT 9999 FEW018 02/00 Q1015
EIWF - Waterford Arpt, Ireland
Distance from station: S 111km
Updated: 18/02/2020 20:30
Partly cloudy
Partly cloudy
 Wind from WNW
Wind: WNW 17 km/h
Temperature: 3°C
Wind Chill: -1°C
Dew Point: 1°C
Humidity: 87%
Barometer: 1019 hPa
Clouds: Partly cloudy
Visibility: 10 km
Cloud details: Partly cloudy 914 m
2020/02/18 20:30 EIWF 182030Z 30009KT 270V330 9999 SCT030 03/01 Q1019 R03/1/////
 
EINN - Shannon Airport, Ireland
Distance from station: WSW 117km
Updated: 18/02/2020 21:00
Partly cloudy
Partly cloudy
 Wind from SW
Wind: SW 15 km/h
Temperature: 4°C
Wind Chill: 1°C
Dew Point: 2°C
Humidity: 87%
Barometer: 1019 hPa
Clouds: Partly cloudy
Visibility: 10 km
Cloud details: Few Clouds 549 m
Partly cloudy 1158 m
2020/02/18 21:00 EINN 182100Z 22008KT 9999 FEW018CB SCT038 04/02 Q1019 NOSIG
EIKN - Connaught Apt, Ireland
Distance from station: NW 127km
Updated: 18/02/2020 20:30
Light rain, Showers, Small hail, Mostly cloudy
Light rain, Showers, Small hail, Mostly cloudy
 Wind from W
Wind: W 24 km/h, Gust: 43 km/h
Temperature: 2°C
Wind Chill: -3°C
Dew Point: 0°C
Humidity: 87%
Barometer: 1015 hPa
Summary: Light rain, Showers, Small hail
Clouds: Mostly cloudy
Visibility: 10 km
Cloud details: Partly cloudy 366 m
Mostly cloudy 610 m
2020/02/18 20:30 EIKN 182030Z 28013G23KT 240V320 9999 -SHRAGS SCT012 BKN020CB 02/00 Q1015 NOSIG
EISG - Sligo Arpt, Ireland
Distance from station: NNW 148km
Updated: 18/02/2020 18:00
NOT Current
Partly cloudy
Partly cloudy
 Wind from W
Wind: W 37 km/h
Temperature: 5°C
Wind Chill: -1°C
Dew Point: 3°C
Humidity: 87%
Barometer: 1011 hPa
Clouds: Partly cloudy
Visibility: 10 km
Cloud details: Few Clouds 610 m
Partly cloudy 792 m
2020/02/18 18:00 EISG 181800Z 27020KT 9999 FEW020 SCT026 05/03 Q1011
 
EICK - Cork Arpt/Corcai, Ireland
Distance from station: SSW 165km
Updated: 18/02/2020 21:00
Partly cloudy
Partly cloudy
 Wind from W
Wind: W 19 km/h
Temperature: 3°C
Wind Chill: -2°C
Dew Point: 1°C
Humidity: 87%
Barometer: 1020 hPa
Clouds: Partly cloudy
Visibility: 10 km
Cloud details: Few Clouds 549 m
Partly cloudy 1006 m
2020/02/18 21:00 EICK 182100Z 27010KT 9999 FEW018CB SCT033 03/01 Q1020 NOSIG
EGAA - Belfast/Aldergro, United Kingdom
Distance from station: NNE 179km
Updated: 18/02/2020 20:50
Mostly cloudy
Mostly cloudy
 Wind from WSW
Wind: WSW 17 km/h
Temperature: 2°C
Wind Chill: -2°C
Dew Point: 1°C
Humidity: 93%
Barometer: 1012 hPa
Clouds: Mostly cloudy
Visibility: 10 km
Cloud details: Few Clouds 549 m
Mostly cloudy 1189 m
2020/02/18 20:50 EGAA 182050Z 25009KT 9999 FEW018 BKN039 02/01 Q1012
EIKY - Kerry Arpt, Ireland
Distance from station: SW 182km
Updated: 18/02/2020 19:30
NOT Current
Light rain, Overcast
Light rain, Overcast
 Wind from WNW
Wind: WNW 19 km/h, Gust: 37 km/h
Temperature: 5°C
Wind Chill: 1°C
Dew Point: 1°C
Humidity: 76%
Barometer: 1019 hPa
Summary: Light rain
Clouds: Overcast
Visibility: 10 km
Cloud details: Mostly cloudy 792 m
Overcast 914 m
2020/02/18 19:30 EIKY 181930Z 29010G20KT 250V330 9999 -RA BKN026 OVC030 05/01 Q1019
 
EGAC - Belfast Harbour, United Kingdom
Distance from station: NNE 188km
Updated: 18/02/2020 20:50
Few Clouds
Few Clouds
 Wind from WSW
Wind: WSW 20 km/h, Gust: 39 km/h
Temperature: 3°C
Wind Chill: -2°C
Dew Point: 1°C
Humidity: 87%
Barometer: 1012 hPa
Clouds: Few Clouds
Visibility: 10 km
Cloud details: Few Clouds 792 m
2020/02/18 20:50 EGAC 182050Z AUTO 25011G21KT 9999 FEW026/// 03/01 Q1012
EGOV - Valley Raf, United Kingdom
Distance from station: E 188km
Updated: 18/02/2020 20:50
Partly cloudy
Partly cloudy
 Wind from W
Wind: W 41 km/h
Temperature: 6°C
Wind Chill: 1°C
Dew Point: 1°C
Humidity: 71%
Barometer: 1014 hPa
Clouds: Partly cloudy
Visibility: 10 km
Cloud details: Partly cloudy 762 m
2020/02/18 20:50 EGOV 182050Z AUTO 28022KT 9999 SCT025/// 06/01 Q1014
EGNS - Isle Of Man/Rona, United Kingdom
Distance from station: ENE 207km
Updated: 18/02/2020 20:50
Few Clouds
Few Clouds
 Wind from W
Wind: W 35 km/h
Temperature: 5°C
Wind Chill: -1°C
Dew Point: 1°C
Humidity: 76%
Barometer: 1011 hPa
Clouds: Few Clouds
Visibility: 10 km
Cloud details: Few Clouds 610 m
2020/02/18 20:50 EGNS 182050Z 27019KT 240V310 9999 FEW020 05/01 Q1011 NOSIG